createdAt,value
2022-10-13T00:01:26.376Z,6.93
2022-10-13T00:03:55.491Z,7.55
2022-10-13T00:06:27.410Z,7.25
2022-10-13T00:08:57.801Z,6.85
2022-10-13T00:11:30.293Z,6.88
2022-10-13T00:14:01.961Z,7.27
2022-10-13T00:16:33.096Z,6.35
2022-10-13T00:19:01.623Z,7.03
2022-10-13T00:21:30.906Z,7.00
2022-10-13T00:24:00.917Z,6.80
2022-10-13T00:26:29.643Z,7.00
2022-10-13T00:28:58.302Z,6.72
2022-10-13T00:31:29.647Z,6.00
2022-10-13T00:34:00.541Z,6.93
2022-10-13T00:36:30.308Z,6.50
2022-10-13T00:39:00.795Z,7.70
2022-10-13T00:41:29.606Z,6.32
2022-10-13T00:44:03.260Z,6.32
2022-10-13T00:46:34.253Z,6.53
2022-10-13T00:49:11.049Z,5.75
2022-10-13T00:51:44.991Z,5.83
2022-10-13T00:54:25.737Z,5.57
2022-10-13T00:56:55.444Z,5.72
2022-10-13T00:59:29.412Z,6.05
2022-10-13T01:02:01.192Z,6.05
2022-10-13T01:04:36.123Z,5.70
2022-10-13T01:07:05.777Z,5.85
2022-10-13T01:09:38.080Z,5.80
2022-10-13T01:12:22.393Z,5.38
2022-10-13T01:14:59.843Z,5.40
2022-10-13T01:17:38.145Z,5.70
2022-10-13T01:20:56.416Z,5.00
2022-10-13T01:24:17.716Z,4.85
2022-10-13T01:27:18.555Z,5.03
2022-10-13T01:30:13.326Z,5.88
2022-10-13T01:33:11.711Z,5.00
2022-10-13T01:36:00.879Z,4.63
2022-10-13T01:38:41.303Z,4.90
2022-10-13T01:41:20.190Z,4.50
2022-10-13T01:43:55.269Z,5.07
2022-10-13T01:46:30.357Z,4.60
2022-10-13T01:49:05.071Z,4.85
2022-10-13T01:51:36.317Z,4.78
2022-10-13T01:54:05.714Z,4.40
2022-10-13T01:56:34.499Z,3.72
2022-10-13T01:59:09.425Z,4.57
2022-10-13T02:01:58.373Z,4.40
2022-10-13T02:04:43.427Z,4.22
2022-10-13T02:07:20.404Z,4.10
2022-10-13T02:10:03.537Z,4.90
2022-10-13T02:12:37.848Z,4.67
2022-10-13T02:15:11.995Z,4.78
2022-10-13T02:17:42.982Z,5.07
2022-10-13T02:20:13.419Z,5.43
2022-10-13T02:22:48.991Z,4.90
2022-10-13T02:25:17.530Z,4.97
2022-10-13T02:27:45.972Z,5.10
2022-10-13T02:30:24.113Z,5.07
2022-10-13T02:32:54.798Z,6.00
2022-10-13T02:35:23.681Z,6.13
2022-10-13T02:37:52.187Z,5.60
2022-10-13T02:40:20.680Z,6.45
2022-10-13T02:42:49.234Z,5.90
2022-10-13T02:45:17.932Z,6.30
2022-10-13T02:47:46.685Z,6.50
2022-10-13T02:50:16.975Z,6.80
2022-10-13T02:52:45.421Z,6.25
2022-10-13T02:55:14.187Z,6.78
2022-10-13T02:57:42.841Z,6.68
2022-10-13T03:00:13.044Z,6.97
2022-10-13T03:02:41.864Z,7.53
2022-10-13T03:05:11.955Z,6.50
2022-10-13T03:07:42.076Z,6.40
2022-10-13T03:10:10.860Z,5.97
2022-10-13T03:12:39.521Z,6.55
2022-10-13T03:15:09.741Z,5.90
2022-10-13T03:17:38.434Z,5.82
2022-10-13T03:20:09.114Z,5.53
2022-10-13T03:22:37.790Z,5.97
2022-10-13T03:25:08.892Z,5.70
2022-10-13T03:27:37.417Z,5.60
2022-10-13T03:30:07.039Z,5.68
2022-10-13T03:32:35.725Z,5.35
2022-10-13T03:35:05.923Z,5.10
2022-10-13T03:37:34.391Z,5.40
2022-10-13T03:40:02.885Z,5.53
2022-10-13T03:42:32.733Z,5.47
2022-10-13T03:45:01.417Z,5.22
2022-10-13T03:47:29.881Z,5.05
2022-10-13T03:49:58.544Z,4.55
2022-10-13T03:52:27.005Z,4.67
2022-10-13T03:54:55.652Z,4.35
2022-10-13T03:57:24.415Z,4.30
2022-10-13T03:59:56.087Z,5.32
2022-10-13T04:02:25.013Z,4.88
2022-10-13T04:04:53.661Z,4.90
2022-10-13T04:07:22.345Z,4.43
2022-10-13T04:09:50.824Z,4.82
2022-10-13T04:12:21.019Z,6.05
2022-10-13T04:14:49.788Z,5.20
2022-10-13T04:17:19.882Z,4.83
2022-10-13T04:19:48.404Z,4.10
2022-10-13T04:22:17.203Z,4.00
2022-10-13T04:24:46.071Z,4.20
2022-10-13T04:27:16.733Z,4.20
2022-10-13T04:29:45.198Z,3.90
2022-10-13T04:32:13.641Z,3.97
2022-10-13T04:34:43.499Z,4.20
2022-10-13T04:37:12.493Z,4.22
2022-10-13T04:39:40.965Z,4.78
2022-10-13T04:42:09.438Z,4.70
2022-10-13T04:44:38.113Z,4.88
2022-10-13T04:47:07.184Z,5.05
2022-10-13T04:49:36.780Z,5.03
2022-10-13T04:52:06.671Z,4.65
2022-10-13T04:54:35.166Z,5.20
2022-10-13T04:57:03.829Z,5.47
2022-10-13T04:59:32.275Z,5.50
2022-10-13T05:02:01.017Z,5.43
2022-10-13T05:04:29.509Z,4.20
2022-10-13T05:07:17.892Z,5.23
2022-10-13T05:09:48.275Z,4.65
2022-10-13T05:12:17.343Z,4.50
2022-10-13T05:14:46.113Z,4.13
2022-10-13T05:17:14.678Z,4.53
2022-10-13T05:19:43.114Z,5.77
2022-10-13T05:22:11.817Z,4.72
2022-10-13T05:24:40.899Z,5.38
2022-10-13T05:27:13.822Z,5.43
2022-10-13T05:29:42.837Z,4.00
2022-10-13T05:32:11.611Z,4.37
2022-10-13T05:34:40.165Z,3.88
2022-10-13T05:37:08.609Z,3.80
2022-10-13T05:39:37.070Z,3.92
2022-10-13T05:42:05.995Z,4.13
2022-10-13T05:44:36.454Z,4.00
2022-10-13T05:47:07.607Z,4.30
2022-10-13T05:49:39.803Z,5.68
2022-10-13T05:52:13.193Z,6.45
2022-10-13T05:54:46.799Z,5.63
2022-10-13T05:57:21.974Z,5.97
2022-10-13T05:59:59.069Z,6.30
2022-10-13T06:02:35.554Z,5.55
2022-10-13T06:05:08.875Z,4.00
2022-10-13T06:07:37.601Z,3.88
2022-10-13T06:10:07.521Z,5.27
2022-10-13T06:12:36.027Z,4.40
2022-10-13T06:15:07.095Z,3.88
2022-10-13T06:17:38.483Z,4.80
2022-10-13T06:20:09.700Z,4.25
2022-10-13T06:22:39.462Z,3.97
2022-10-13T06:25:10.625Z,3.60
2022-10-13T06:27:39.205Z,4.15
2022-10-13T06:30:11.178Z,5.50
2022-10-13T06:32:40.169Z,4.50
2022-10-13T06:35:10.099Z,3.90
2022-10-13T06:37:38.565Z,3.90
2022-10-13T06:40:08.879Z,3.70
2022-10-13T06:42:37.541Z,4.15
2022-10-13T06:45:08.581Z,11.48
2022-10-13T06:47:37.096Z,5.50
2022-10-13T06:50:06.390Z,4.65
2022-10-13T06:52:34.873Z,4.72
2022-10-13T06:55:03.623Z,4.50
2022-10-13T06:57:32.076Z,4.57
2022-10-13T07:00:00.522Z,8.37
2022-10-13T07:02:30.364Z,7.82
2022-10-13T07:04:59.117Z,6.13
2022-10-13T07:07:28.236Z,6.13
2022-10-13T07:09:56.782Z,5.78
2022-10-13T07:12:25.370Z,4.63
2022-10-13T07:14:53.830Z,5.03
2022-10-13T07:17:22.674Z,5.30
2022-10-13T07:19:57.093Z,4.90
2022-10-13T07:22:27.932Z,5.00
2022-10-13T07:24:56.402Z,4.97
2022-10-13T07:27:25.562Z,5.00
2022-10-13T07:29:54.218Z,5.38
2022-10-13T07:32:23.090Z,4.93
2022-10-13T07:34:55.372Z,4.80
2022-10-13T07:37:25.046Z,4.73
2022-10-13T07:39:53.976Z,4.50
2022-10-13T07:42:22.398Z,5.25
2022-10-13T07:44:50.838Z,4.97
2022-10-13T07:47:19.824Z,6.85
2022-10-13T07:49:48.493Z,5.10
2022-10-13T07:52:18.962Z,5.43
2022-10-13T07:54:47.782Z,5.65
2022-10-13T07:57:16.686Z,5.30
2022-10-13T07:59:45.580Z,4.90
2022-10-13T08:02:14.602Z,5.33
2022-10-13T08:04:43.083Z,5.55
2022-10-13T08:07:11.875Z,5.45
2022-10-13T08:09:42.046Z,5.50
2022-10-13T08:12:10.506Z,5.40
2022-10-13T08:14:39.118Z,5.97
2022-10-13T08:17:07.692Z,9.40
2022-10-13T08:19:36.399Z,6.18
2022-10-13T08:22:09.184Z,6.70
2022-10-13T08:24:38.768Z,8.05
2022-10-13T08:27:11.959Z,7.20
2022-10-13T08:29:40.699Z,7.55
2022-10-13T08:32:09.160Z,7.43
2022-10-13T08:34:37.682Z,6.53
2022-10-13T08:37:06.202Z,6.35
2022-10-13T08:39:34.673Z,5.80
2022-10-13T08:42:03.197Z,6.68
2022-10-13T08:47:43.039Z,5.88
2022-10-13T08:50:17.210Z,5.22
2022-10-13T08:52:51.432Z,5.10
2022-10-13T08:55:26.914Z,4.57
2022-10-13T08:57:55.601Z,5.00
2022-10-13T09:00:25.921Z,5.00
2022-10-13T09:02:54.504Z,4.32
2022-10-13T09:05:38.954Z,3.30
2022-10-13T09:08:18.687Z,3.10
2022-10-13T09:10:52.061Z,2.85
2022-10-13T09:13:21.406Z,3.10
2022-10-13T09:15:52.169Z,3.08
2022-10-13T09:18:28.326Z,2.67
2022-10-13T09:21:20.726Z,3.80
2022-10-13T09:23:51.899Z,3.22
2022-10-13T09:26:25.972Z,2.60
2022-10-13T09:28:54.852Z,3.20
2022-10-13T09:31:27.656Z,3.20
2022-10-13T09:34:01.728Z,3.20
2022-10-13T09:36:31.386Z,2.67
2022-10-13T09:39:12.344Z,3.10
2022-10-13T09:41:42.935Z,2.63
2022-10-13T09:44:19.309Z,2.30
2022-10-13T09:46:54.735Z,2.78
2022-10-13T09:49:37.637Z,2.40
2022-10-13T09:52:16.065Z,2.88
2022-10-13T09:54:49.034Z,2.65
2022-10-13T09:57:38.115Z,2.63
2022-10-13T10:00:18.175Z,2.63
2022-10-13T10:02:56.762Z,2.60
2022-10-13T10:05:29.429Z,2.42
2022-10-13T10:08:07.612Z,2.40
2022-10-13T10:10:40.528Z,2.27
2022-10-13T10:13:13.770Z,2.33
2022-10-13T10:15:54.948Z,2.60
2022-10-13T10:18:35.061Z,2.20
2022-10-13T10:21:11.630Z,3.40
2022-10-13T10:23:55.115Z,3.40
2022-10-13T10:26:37.617Z,2.78
2022-10-13T10:29:27.352Z,3.25
2022-10-13T10:32:29.069Z,3.05
2022-10-13T10:35:05.767Z,2.88
2022-10-13T10:37:56.404Z,2.50
2022-10-13T10:40:39.567Z,2.50
2022-10-13T10:43:42.922Z,2.40
2022-10-13T10:46:19.350Z,2.63
2022-10-13T10:48:50.488Z,2.47
2022-10-13T10:51:21.958Z,2.70
2022-10-13T10:53:59.334Z,2.55
2022-10-13T10:56:36.350Z,2.45
2022-10-13T10:59:28.101Z,2.63
2022-10-13T11:02:16.142Z,2.63
2022-10-13T11:04:47.501Z,2.20
2022-10-13T11:07:55.862Z,2.83
2022-10-13T11:10:26.412Z,2.90
2022-10-13T11:13:21.020Z,2.47
2022-10-13T11:15:50.030Z,2.70
2022-10-13T11:18:59.290Z,2.77
2022-10-13T11:21:28.037Z,2.47
2022-10-13T11:24:01.907Z,3.05
2022-10-13T11:26:45.250Z,3.00
2022-10-13T11:29:56.215Z,2.40
2022-10-13T11:32:55.194Z,3.03
2022-10-13T11:35:30.558Z,2.40
2022-10-13T11:38:35.457Z,2.55
2022-10-13T11:41:23.556Z,2.60
2022-10-13T11:44:02.671Z,3.45
2022-10-13T11:46:53.477Z,2.80
2022-10-13T11:49:52.614Z,2.97
2022-10-13T11:52:47.597Z,2.50
2022-10-13T11:55:20.774Z,2.97
2022-10-13T11:57:50.905Z,2.78
2022-10-13T12:00:20.656Z,2.43
2022-10-13T12:02:51.910Z,2.63
2022-10-13T12:05:26.176Z,2.53
2022-10-13T12:08:00.125Z,2.30
2022-10-13T12:10:34.069Z,2.70
2022-10-13T12:13:06.326Z,1.97
2022-10-13T12:15:37.923Z,2.00
2022-10-13T12:18:24.241Z,2.28
2022-10-13T12:20:57.964Z,2.20
2022-10-13T12:23:29.902Z,1.83
2022-10-13T12:26:00.200Z,1.93
2022-10-13T12:28:47.369Z,1.90
2022-10-13T12:31:23.065Z,1.60
2022-10-13T12:33:56.617Z,2.45
2022-10-13T12:36:31.378Z,2.08
2022-10-13T12:39:05.206Z,2.13
2022-10-13T12:41:38.096Z,2.03
2022-10-13T12:44:14.395Z,1.90
2022-10-13T12:46:45.994Z,1.60
2022-10-13T12:49:17.864Z,1.60
2022-10-13T12:51:50.646Z,1.40
2022-10-13T12:54:26.937Z,1.90
2022-10-13T12:57:00.283Z,1.90
2022-10-13T12:59:32.054Z,1.70
2022-10-13T13:02:03.833Z,2.25
2022-10-13T13:04:42.371Z,1.90
2022-10-13T13:07:31.211Z,1.80
2022-10-13T13:10:18.565Z,2.25
2022-10-13T13:12:51.124Z,1.65
2022-10-13T13:15:37.637Z,1.98
2022-10-13T13:18:31.699Z,2.20
2022-10-13T13:21:01.984Z,1.83
2022-10-13T13:23:34.574Z,1.70
2022-10-13T13:26:12.321Z,1.67
2022-10-13T13:28:46.386Z,1.88
2022-10-13T13:31:18.255Z,1.97
2022-10-13T13:33:47.774Z,2.03
2022-10-13T13:36:20.550Z,1.90
2022-10-13T13:38:50.044Z,1.90
2022-10-13T13:41:19.179Z,1.70
2022-10-13T13:43:48.444Z,1.77
2022-10-13T13:46:22.243Z,1.80
2022-10-13T13:48:51.233Z,1.80
2022-10-13T13:51:19.792Z,1.60
2022-10-13T13:53:48.647Z,1.88
2022-10-13T13:56:20.395Z,1.87
2022-10-13T13:58:49.659Z,1.80
2022-10-13T14:01:19.610Z,1.42
2022-10-13T14:03:48.340Z,1.50
2022-10-13T14:06:20.706Z,1.60
2022-10-13T14:08:49.243Z,1.60
2022-10-13T14:11:17.982Z,1.52
2022-10-13T14:13:46.715Z,1.48
2022-10-13T14:16:18.905Z,1.88
2022-10-13T14:18:47.567Z,1.90
2022-10-13T14:21:16.237Z,1.90
2022-10-13T14:23:47.078Z,1.70
2022-10-13T14:26:16.751Z,1.92
2022-10-13T14:28:46.580Z,1.92
2022-10-13T14:31:15.086Z,1.88
2022-10-13T14:33:45.189Z,2.33
2022-10-13T14:36:13.900Z,2.10
2022-10-13T14:38:42.436Z,1.90
2022-10-13T14:41:11.489Z,2.33
2022-10-13T14:43:39.955Z,5.75
2022-10-13T14:46:08.650Z,2.30
2022-10-13T14:48:39.033Z,1.90
2022-10-13T14:51:11.090Z,2.22
2022-10-13T15:00:13.998Z,2.10
2022-10-13T15:02:42.785Z,2.28
2022-10-13T15:05:12.539Z,2.38
2022-10-13T15:16:38.139Z,2.38
2022-10-13T15:19:07.510Z,2.63
2022-10-13T15:21:36.078Z,3.03
2022-10-13T15:24:04.786Z,2.60
2022-10-13T15:26:33.955Z,2.97
2022-10-13T15:29:02.612Z,3.53
2022-10-13T15:31:31.572Z,2.28
2022-10-13T15:34:02.966Z,2.60
2022-10-13T15:36:31.761Z,2.90
2022-10-13T15:39:00.429Z,2.40
2022-10-13T15:41:29.128Z,2.60
2022-10-13T15:43:57.581Z,2.70
2022-10-13T15:46:26.580Z,2.83
2022-10-13T15:48:55.765Z,2.57
2022-10-13T15:51:27.286Z,2.60
2022-10-13T15:53:56.333Z,2.67
2022-10-13T15:56:24.919Z,2.78
2022-10-13T15:58:54.057Z,2.55
2022-10-13T16:01:22.551Z,2.53
2022-10-13T16:03:56.083Z,2.63
2022-10-13T16:06:26.957Z,2.65
2022-10-13T16:08:56.142Z,3.08
2022-10-13T16:11:26.055Z,2.58
2022-10-13T16:13:54.703Z,2.50
2022-10-13T16:16:23.711Z,2.97
2022-10-13T16:21:43.968Z,2.70
2022-10-13T16:24:12.611Z,3.08
2022-10-13T16:26:41.334Z,2.83
2022-10-13T16:29:09.819Z,2.65
2022-10-13T16:31:38.569Z,3.05
2022-10-13T16:34:07.117Z,3.10
2022-10-13T16:36:35.612Z,3.20
2022-10-13T16:39:05.679Z,2.90
2022-10-13T16:41:34.174Z,3.00
2022-10-13T16:44:02.679Z,2.90
2022-10-13T16:46:31.401Z,2.90
2022-10-13T16:49:00.411Z,3.00
2022-10-13T16:51:29.926Z,2.53
2022-10-13T16:54:04.259Z,2.65
2022-10-13T16:56:34.669Z,3.40
2022-10-13T16:59:05.874Z,3.53
2022-10-13T17:01:36.613Z,3.33
2022-10-13T17:04:05.924Z,3.20
2022-10-13T17:06:38.597Z,3.95
2022-10-13T17:09:07.149Z,3.55
2022-10-13T17:11:38.193Z,3.20
2022-10-13T17:14:07.489Z,3.60
2022-10-13T17:16:36.071Z,3.77
2022-10-13T17:19:05.139Z,3.35
2022-10-13T17:21:34.881Z,3.30
2022-10-13T17:24:03.526Z,3.50
2022-10-13T17:26:32.135Z,3.30
2022-10-13T17:29:02.352Z,3.43
2022-10-13T17:31:31.454Z,3.30
2022-10-13T17:34:02.062Z,3.60
2022-10-13T17:36:34.515Z,5.20
2022-10-13T17:39:07.332Z,3.50
2022-10-13T17:41:36.341Z,3.70
2022-10-13T17:44:06.394Z,3.42
2022-10-13T17:46:38.783Z,5.20
2022-10-13T17:49:10.301Z,4.10
2022-10-13T17:51:39.791Z,3.63
2022-10-13T17:54:14.470Z,3.83
2022-10-13T17:56:45.286Z,4.28
2022-10-13T17:59:16.183Z,3.60
2022-10-13T18:01:48.237Z,3.88
2022-10-13T18:04:19.961Z,4.10
2022-10-13T18:06:48.901Z,3.80
2022-10-13T18:09:20.595Z,4.22
2022-10-13T18:11:51.642Z,4.25
2022-10-13T18:14:24.206Z,4.65
2022-10-13T18:16:53.717Z,4.03
2022-10-13T18:19:22.611Z,4.17
2022-10-13T18:21:53.023Z,3.60
2022-10-13T18:24:21.923Z,3.80
2022-10-13T18:26:50.458Z,3.90
2022-10-13T18:29:20.418Z,3.80
2022-10-13T18:31:49.127Z,3.97
2022-10-13T18:34:18.989Z,3.78
2022-10-13T18:36:50.629Z,3.35
2022-10-13T18:39:21.526Z,4.50
2022-10-13T18:41:51.515Z,3.70
2022-10-13T18:44:22.373Z,3.70
2022-10-13T18:46:52.182Z,3.38
2022-10-13T18:49:23.446Z,3.85
2022-10-13T18:51:52.902Z,3.95
2022-10-13T18:54:21.602Z,4.63
2022-10-13T18:56:50.312Z,4.60
2022-10-13T18:59:20.751Z,4.50
2022-10-13T19:01:50.043Z,4.70
2022-10-13T19:04:18.535Z,4.63
2022-10-13T19:06:47.088Z,4.47
2022-10-13T19:09:17.555Z,3.70
2022-10-13T19:11:46.472Z,3.80
2022-10-13T19:14:15.642Z,3.80
2022-10-13T19:16:45.694Z,3.60
2022-10-13T19:19:14.879Z,4.00
2022-10-13T19:21:43.570Z,4.13
2022-10-13T19:24:12.416Z,3.50
2022-10-13T19:26:41.113Z,3.83
2022-10-13T19:29:13.794Z,3.78
2022-10-13T19:31:45.189Z,3.45
2022-10-13T19:34:14.993Z,3.43
2022-10-13T19:36:46.865Z,3.03
2022-10-13T19:39:19.465Z,3.75
2022-10-13T19:41:49.823Z,3.53
2022-10-13T19:44:20.580Z,3.90
2022-10-13T19:46:51.195Z,4.23
2022-10-13T19:49:22.854Z,4.00
2022-10-13T19:51:53.750Z,4.60
2022-10-13T19:54:23.426Z,4.50
2022-10-13T19:56:52.255Z,4.03
2022-10-13T19:59:22.438Z,4.47
2022-10-13T20:01:52.517Z,4.35
2022-10-13T20:04:21.514Z,4.30
2022-10-13T20:06:51.402Z,4.47
2022-10-13T20:09:20.385Z,5.07
2022-10-13T20:11:52.040Z,4.00
2022-10-13T20:14:21.037Z,4.50
2022-10-13T20:16:51.628Z,4.15
2022-10-13T20:19:20.267Z,4.60
2022-10-13T20:21:51.895Z,4.60
2022-10-13T20:24:21.585Z,3.90
2022-10-13T20:26:50.425Z,3.85
2022-10-13T20:29:18.908Z,4.55
2022-10-13T20:31:47.699Z,4.13
2022-10-13T20:34:17.767Z,4.40
2022-10-13T20:36:46.353Z,4.20
2022-10-13T20:39:15.858Z,4.20
2022-10-13T20:41:44.874Z,4.47
2022-10-13T20:44:13.346Z,4.10
2022-10-13T20:46:41.819Z,4.05
2022-10-13T20:49:12.286Z,3.87
2022-10-13T20:51:44.480Z,3.92
2022-10-13T20:54:15.595Z,4.10
2022-10-13T20:56:44.806Z,4.00
2022-10-13T20:59:15.671Z,3.95
2022-10-13T21:01:44.927Z,3.57
2022-10-13T21:04:13.370Z,3.38
2022-10-13T21:06:43.705Z,4.05
2022-10-13T21:09:12.255Z,3.60
2022-10-13T21:11:40.797Z,3.50
2022-10-13T21:14:10.431Z,3.67
2022-10-13T21:16:39.339Z,3.55
2022-10-13T21:19:08.627Z,3.60
2022-10-13T21:21:38.171Z,3.70
2022-10-13T21:24:10.072Z,3.78
2022-10-13T21:26:39.233Z,3.60
2022-10-13T21:29:07.807Z,3.35
2022-10-13T21:31:36.879Z,3.80
2022-10-13T21:34:05.621Z,3.75
2022-10-13T21:36:35.426Z,3.60
2022-10-13T21:39:07.773Z,4.00
2022-10-13T21:41:36.332Z,4.03
2022-10-13T21:44:06.429Z,3.80
2022-10-13T21:46:36.593Z,3.60
2022-10-13T21:49:07.134Z,4.10
2022-10-13T21:51:38.350Z,3.80
2022-10-13T21:54:11.565Z,3.60
2022-10-13T21:56:42.473Z,4.10
2022-10-13T21:59:13.156Z,3.40
2022-10-13T22:01:42.610Z,3.92
2022-10-13T22:04:14.999Z,3.97
2022-10-13T22:06:44.416Z,3.85
2022-10-13T22:09:15.517Z,4.30
2022-10-13T22:11:45.130Z,3.83
2022-10-13T22:14:14.298Z,3.90
2022-10-13T22:16:46.221Z,4.07
2022-10-13T22:19:15.731Z,3.90
2022-10-13T22:21:47.743Z,4.00
2022-10-13T22:24:21.213Z,3.85
2022-10-13T22:26:51.309Z,3.75
2022-10-13T22:29:23.250Z,3.80
2022-10-13T22:31:55.841Z,3.38
2022-10-13T22:34:24.692Z,3.63
2022-10-13T22:36:54.924Z,4.18
2022-10-13T22:39:24.761Z,4.30
2022-10-13T22:41:53.222Z,4.43
2022-10-13T22:44:21.885Z,4.57
2022-10-13T22:46:50.789Z,4.50
2022-10-13T22:49:19.229Z,4.47
2022-10-13T22:51:47.912Z,4.78
2022-10-13T22:54:16.378Z,3.90
2022-10-13T22:56:46.459Z,4.10
2022-10-13T22:59:14.927Z,4.75
2022-10-13T23:01:43.425Z,4.22
2022-10-13T23:04:11.902Z,4.05
2022-10-13T23:06:40.379Z,3.83
2022-10-13T23:09:13.950Z,3.30
2022-10-13T23:11:42.414Z,3.50
2022-10-13T23:14:12.298Z,2.92
2022-10-13T23:16:40.777Z,3.40
2022-10-13T23:19:09.486Z,3.20
2022-10-13T23:21:37.929Z,3.30
2022-10-13T23:24:08.666Z,3.58
2022-10-13T23:26:37.177Z,3.05
2022-10-13T23:29:06.477Z,3.28
2022-10-13T23:31:36.561Z,3.30
2022-10-13T23:34:05.162Z,3.50
2022-10-13T23:36:34.542Z,3.63
2022-10-13T23:39:06.845Z,3.00
2022-10-13T23:41:35.518Z,3.20
2022-10-13T23:44:04.630Z,3.27
2022-10-13T23:46:33.069Z,2.88
2022-10-13T23:49:03.138Z,3.55
2022-10-13T23:51:31.816Z,3.55
2022-10-13T23:54:00.523Z,3.40
2022-10-13T23:56:29.103Z,3.07
2022-10-13T23:58:57.779Z,2.80
